sensor_id;sensor_type;location;lat;lon;timestamp;P1;durP1;ratioP1;P2;durP2;ratioP2
20611;SDS011;10465;42.686;23.364;2023-03-01T00:01:23;65.20;;;46.53;;
20611;SDS011;10465;42.686;23.364;2023-03-01T00:03:51;55.35;;;41.42;;
20611;SDS011;10465;42.686;23.364;2023-03-01T00:06:17;35.30;;;30.52;;
20611;SDS011;10465;42.686;23.364;2023-03-01T00:08:43;29.75;;;26.58;;
20611;SDS011;10465;42.686;23.364;2023-03-01T00:11:19;22.63;;;19.98;;
20611;SDS011;10465;42.686;23.364;2023-03-01T00:13:48;22.13;;;18.10;;
20611;SDS011;10465;42.686;23.364;2023-03-01T00:16:16;17.77;;;15.07;;
20611;SDS011;10465;42.686;23.364;2023-03-01T00:18:47;14.13;;;10.73;;
20611;SDS011;10465;42.686;23.364;2023-03-01T00:21:13;6.93;;;5.85;;
20611;SDS011;10465;42.686;23.364;2023-03-01T00:23:38;11.48;;;8.82;;
20611;SDS011;10465;42.686;23.364;2023-03-01T00:26:09;9.85;;;7.65;;
20611;SDS011;10465;42.686;23.364;2023-03-01T00:28:37;12.55;;;8.93;;
20611;SDS011;10465;42.686;23.364;2023-03-01T00:31:06;22.42;;;12.18;;
20611;SDS011;10465;42.686;23.364;2023-03-01T00:33:33;37.40;;;19.05;;
20611;SDS011;10465;42.686;23.364;2023-03-01T00:35:59;36.80;;;18.48;;
20611;SDS011;10465;42.686;23.364;2023-03-01T00:38:25;27.30;;;13.95;;
20611;SDS011;10465;42.686;23.364;2023-03-01T00:40:51;24.85;;;12.50;;
20611;SDS011;10465;42.686;23.364;2023-03-01T00:43:16;21.23;;;11.05;;
20611;SDS011;10465;42.686;23.364;2023-03-01T00:45:42;18.45;;;9.13;;
20611;SDS011;10465;42.686;23.364;2023-03-01T00:48:07;13.25;;;7.57;;
20611;SDS011;10465;42.686;23.364;2023-03-01T00:50:33;10.90;;;6.60;;
20611;SDS011;10465;42.686;23.364;2023-03-01T00:52:58;8.40;;;4.10;;
20611;SDS011;10465;42.686;23.364;2023-03-01T00:55:24;6.05;;;3.75;;
20611;SDS011;10465;42.686;23.364;2023-03-01T00:57:50;5.63;;;3.20;;
20611;SDS011;10465;42.686;23.364;2023-03-01T01:00:16;5.05;;;3.30;;
20611;SDS011;10465;42.686;23.364;2023-03-01T01:02:42;3.45;;;2.47;;
20611;SDS011;10465;42.686;23.364;2023-03-01T01:05:08;4.97;;;2.60;;
20611;SDS011;10465;42.686;23.364;2023-03-01T01:07:34;2.75;;;2.05;;
20611;SDS011;10465;42.686;23.364;2023-03-01T01:09:59;2.95;;;2.08;;
20611;SDS011;10465;42.686;23.364;2023-03-01T01:12:25;2.88;;;2.25;;
20611;SDS011;10465;42.686;23.364;2023-03-01T01:14:50;2.65;;;2.10;;
20611;SDS011;10465;42.686;23.364;2023-03-01T01:17:16;3.03;;;2.17;;
20611;SDS011;10465;42.686;23.364;2023-03-01T01:19:41;2.75;;;2.22;;
20611;SDS011;10465;42.686;23.364;2023-03-01T01:22:07;3.15;;;2.40;;
20611;SDS011;10465;42.686;23.364;2023-03-01T01:24:32;3.03;;;2.00;;
20611;SDS011;10465;42.686;23.364;2023-03-01T01:26:57;2.50;;;2.08;;
20611;SDS011;10465;42.686;23.364;2023-03-01T01:29:23;3.42;;;2.33;;
20611;SDS011;10465;42.686;23.364;2023-03-01T01:31:49;2.42;;;1.92;;
20611;SDS011;10465;42.686;23.364;2023-03-01T01:34:15;3.72;;;2.10;;
20611;SDS011;10465;42.686;23.364;2023-03-01T01:36:43;2.05;;;1.70;;
20611;SDS011;10465;42.686;23.364;2023-03-01T01:39:12;1.88;;;1.70;;
20611;SDS011;10465;42.686;23.364;2023-03-01T01:41:38;2.72;;;1.95;;
20611;SDS011;10465;42.686;23.364;2023-03-01T01:57:27;1.80;;;1.42;;
20611;SDS011;10465;42.686;23.364;2023-03-01T02:00:15;2.67;;;2.05;;
20611;SDS011;10465;42.686;23.364;2023-03-01T02:02:46;3.13;;;1.98;;
20611;SDS011;10465;42.686;23.364;2023-03-01T02:08:08;2.10;;;1.90;;
20611;SDS011;10465;42.686;23.364;2023-03-01T02:10:37;1.88;;;1.75;;
20611;SDS011;10465;42.686;23.364;2023-03-01T02:13:03;1.98;;;1.73;;
20611;SDS011;10465;42.686;23.364;2023-03-01T02:15:36;2.83;;;1.85;;
20611;SDS011;10465;42.686;23.364;2023-03-01T02:18:03;1.92;;;1.73;;
20611;SDS011;10465;42.686;23.364;2023-03-01T02:23:20;1.60;;;1.50;;
20611;SDS011;10465;42.686;23.364;2023-03-01T02:26:01;1.70;;;1.38;;
20611;SDS011;10465;42.686;23.364;2023-03-01T02:28:36;1.55;;;1.45;;
20611;SDS011;10465;42.686;23.364;2023-03-01T02:31:07;1.90;;;1.70;;
20611;SDS011;10465;42.686;23.364;2023-03-01T02:33:54;2.20;;;1.95;;
20611;SDS011;10465;42.686;23.364;2023-03-01T02:36:22;1.80;;;1.70;;
20611;SDS011;10465;42.686;23.364;2023-03-01T02:38:52;2.10;;;1.90;;
20611;SDS011;10465;42.686;23.364;2023-03-01T02:41:20;2.10;;;1.90;;
20611;SDS011;10465;42.686;23.364;2023-03-01T02:43:48;1.90;;;1.40;;
20611;SDS011;10465;42.686;23.364;2023-03-01T02:46:15;2.95;;;1.58;;
20611;SDS011;10465;42.686;23.364;2023-03-01T02:48:48;1.73;;;1.52;;
20611;SDS011;10465;42.686;23.364;2023-03-01T02:56:54;2.40;;;1.85;;
20611;SDS011;10465;42.686;23.364;2023-03-01T02:59:22;3.33;;;1.60;;
20611;SDS011;10465;42.686;23.364;2023-03-01T03:01:50;2.85;;;1.67;;
20611;SDS011;10465;42.686;23.364;2023-03-01T03:04:17;2.75;;;1.90;;
20611;SDS011;10465;42.686;23.364;2023-03-01T03:06:44;2.20;;;1.95;;
20611;SDS011;10465;42.686;23.364;2023-03-01T03:09:11;4.35;;;1.67;;
20611;SDS011;10465;42.686;23.364;2023-03-01T03:11:37;2.63;;;2.28;;
20611;SDS011;10465;42.686;23.364;2023-03-01T03:14:04;2.70;;;2.33;;
20611;SDS011;10465;42.686;23.364;2023-03-01T03:16:30;2.88;;;2.50;;
20611;SDS011;10465;42.686;23.364;2023-03-01T03:18:57;4.60;;;2.50;;
20611;SDS011;10465;42.686;23.364;2023-03-01T03:21:30;3.40;;;2.40;;
20611;SDS011;10465;42.686;23.364;2023-03-01T03:23:57;3.47;;;2.58;;
20611;SDS011;10465;42.686;23.364;2023-03-01T03:26:22;3.60;;;2.85;;
20611;SDS011;10465;42.686;23.364;2023-03-01T03:28:48;4.35;;;2.60;;
20611;SDS011;10465;42.686;23.364;2023-03-01T03:31:13;3.92;;;2.72;;
20611;SDS011;10465;42.686;23.364;2023-03-01T03:33:39;2.53;;;1.85;;
20611;SDS011;10465;42.686;23.364;2023-03-01T03:36:04;2.60;;;2.20;;
20611;SDS011;10465;42.686;23.364;2023-03-01T03:38:30;2.92;;;2.42;;
20611;SDS011;10465;42.686;23.364;2023-03-01T03:41:03;3.55;;;2.65;;
20611;SDS011;10465;42.686;23.364;2023-03-01T03:43:33;3.88;;;2.83;;
20611;SDS011;10465;42.686;23.364;2023-03-01T03:46:00;4.18;;;2.90;;
20611;SDS011;10465;42.686;23.364;2023-03-01T03:48:26;4.15;;;3.15;;
20611;SDS011;10465;42.686;23.364;2023-03-01T03:50:53;3.85;;;2.92;;
20611;SDS011;10465;42.686;23.364;2023-03-01T03:53:20;3.35;;;2.83;;
20611;SDS011;10465;42.686;23.364;2023-03-01T03:55:47;3.85;;;2.85;;
20611;SDS011;10465;42.686;23.364;2023-03-01T03:58:17;4.22;;;3.45;;
20611;SDS011;10465;42.686;23.364;2023-03-01T04:00:45;5.90;;;3.33;;
20611;SDS011;10465;42.686;23.364;2023-03-01T04:03:12;4.85;;;3.70;;
20611;SDS011;10465;42.686;23.364;2023-03-01T04:05:39;5.15;;;3.47;;
20611;SDS011;10465;42.686;23.364;2023-03-01T04:08:06;4.28;;;3.30;;
20611;SDS011;10465;42.686;23.364;2023-03-01T04:10:35;3.33;;;2.50;;
20611;SDS011;10465;42.686;23.364;2023-03-01T04:13:02;2.58;;;2.25;;
20611;SDS011;10465;42.686;23.364;2023-03-01T04:15:30;3.15;;;2.40;;
20611;SDS011;10465;42.686;23.364;2023-03-01T04:17:57;2.50;;;2.30;;
20611;SDS011;10465;42.686;23.364;2023-03-01T04:20:25;3.38;;;2.40;;
20611;SDS011;10465;42.686;23.364;2023-03-01T04:23:03;3.53;;;2.33;;
20611;SDS011;10465;42.686;23.364;2023-03-01T04:28:19;3.55;;;2.50;;
20611;SDS011;10465;42.686;23.364;2023-03-01T04:30:55;3.15;;;2.47;;
20611;SDS011;10465;42.686;23.364;2023-03-01T04:33:23;3.53;;;2.22;;
20611;SDS011;10465;42.686;23.364;2023-03-01T04:35:50;3.05;;;2.50;;
20611;SDS011;10465;42.686;23.364;2023-03-01T04:38:16;3.22;;;2.08;;
20611;SDS011;10465;42.686;23.364;2023-03-01T04:40:42;2.10;;;1.83;;
20611;SDS011;10465;42.686;23.364;2023-03-01T04:43:08;3.17;;;2.03;;
20611;SDS011;10465;42.686;23.364;2023-03-01T04:45:35;3.00;;;2.13;;
20611;SDS011;10465;42.686;23.364;2023-03-01T04:48:01;2.55;;;1.95;;
20611;SDS011;10465;42.686;23.364;2023-03-01T04:50:28;4.30;;;2.50;;
20611;SDS011;10465;42.686;23.364;2023-03-01T04:52:54;2.83;;;2.22;;
20611;SDS011;10465;42.686;23.364;2023-03-01T04:55:23;3.72;;;3.10;;
20611;SDS011;10465;42.686;23.364;2023-03-01T04:57:50;4.88;;;3.40;;
20611;SDS011;10465;42.686;23.364;2023-03-01T05:00:16;4.28;;;3.33;;
20611;SDS011;10465;42.686;23.364;2023-03-01T05:05:25;4.68;;;2.88;;
20611;SDS011;10465;42.686;23.364;2023-03-01T05:07:56;3.75;;;2.78;;
20611;SDS011;10465;42.686;23.364;2023-03-01T05:10:23;3.85;;;2.80;;
20611;SDS011;10465;42.686;23.364;2023-03-01T05:12:50;4.07;;;3.05;;
20611;SDS011;10465;42.686;23.364;2023-03-01T05:15:17;5.65;;;3.17;;
20611;SDS011;10465;42.686;23.364;2023-03-01T05:17:43;5.85;;;4.00;;
20611;SDS011;10465;42.686;23.364;2023-03-01T05:20:09;6.65;;;3.85;;
20611;SDS011;10465;42.686;23.364;2023-03-01T05:22:35;6.45;;;4.22;;
20611;SDS011;10465;42.686;23.364;2023-03-01T05:25:01;6.13;;;4.40;;
20611;SDS011;10465;42.686;23.364;2023-03-01T05:27:27;7.47;;;4.60;;
20611;SDS011;10465;42.686;23.364;2023-03-01T05:29:52;7.00;;;5.10;;
20611;SDS011;10465;42.686;23.364;2023-03-01T05:32:18;6.30;;;4.28;;
20611;SDS011;10465;42.686;23.364;2023-03-01T05:34:43;5.75;;;4.30;;
20611;SDS011;10465;42.686;23.364;2023-03-01T05:37:11;6.60;;;3.90;;
20611;SDS011;10465;42.686;23.364;2023-03-01T05:39:37;5.68;;;4.22;;
20611;SDS011;10465;42.686;23.364;2023-03-01T05:42:02;6.05;;;4.43;;
20611;SDS011;10465;42.686;23.364;2023-03-01T05:44:28;5.32;;;4.10;;
20611;SDS011;10465;42.686;23.364;2023-03-01T05:46:54;5.95;;;3.92;;
20611;SDS011;10465;42.686;23.364;2023-03-01T05:49:20;7.68;;;4.45;;
20611;SDS011;10465;42.686;23.364;2023-03-01T05:51:50;4.60;;;3.80;;
20611;SDS011;10465;42.686;23.364;2023-03-01T05:54:17;6.32;;;3.70;;
20611;SDS011;10465;42.686;23.364;2023-03-01T05:56:43;4.22;;;2.97;;
20611;SDS011;10465;42.686;23.364;2023-03-01T05:59:09;3.92;;;3.03;;
20611;SDS011;10465;42.686;23.364;2023-03-01T06:01:35;4.07;;;3.13;;
20611;SDS011;10465;42.686;23.364;2023-03-01T06:04:02;6.43;;;4.95;;
20611;SDS011;10465;42.686;23.364;2023-03-01T06:06:29;4.90;;;2.78;;
20611;SDS011;10465;42.686;23.364;2023-03-01T06:08:54;4.60;;;2.70;;
20611;SDS011;10465;42.686;23.364;2023-03-01T06:11:20;3.50;;;2.40;;
20611;SDS011;10465;42.686;23.364;2023-03-01T06:13:46;3.78;;;2.53;;
20611;SDS011;10465;42.686;23.364;2023-03-01T06:16:12;5.20;;;2.97;;
20611;SDS011;10465;42.686;23.364;2023-03-01T06:18:39;4.35;;;2.72;;
20611;SDS011;10465;42.686;23.364;2023-03-01T06:21:05;5.25;;;2.47;;
20611;SDS011;10465;42.686;23.364;2023-03-01T06:23:32;5.95;;;2.88;;
20611;SDS011;10465;42.686;23.364;2023-03-01T06:25:58;5.35;;;3.03;;
20611;SDS011;10465;42.686;23.364;2023-03-01T06:28:23;3.15;;;2.58;;
20611;SDS011;10465;42.686;23.364;2023-03-01T06:30:49;5.10;;;3.25;;
20611;SDS011;10465;42.686;23.364;2023-03-01T06:33:16;4.05;;;2.40;;
20611;SDS011;10465;42.686;23.364;2023-03-01T06:35:44;4.65;;;3.03;;
20611;SDS011;10465;42.686;23.364;2023-03-01T06:38:09;7.95;;;3.00;;
20611;SDS011;10465;42.686;23.364;2023-03-01T06:40:35;3.30;;;2.55;;
20611;SDS011;10465;42.686;23.364;2023-03-01T06:43:00;3.83;;;2.72;;
20611;SDS011;10465;42.686;23.364;2023-03-01T06:45:26;3.47;;;2.80;;
20611;SDS011;10465;42.686;23.364;2023-03-01T06:47:51;4.13;;;3.13;;
20611;SDS011;10465;42.686;23.364;2023-03-01T06:50:17;3.97;;;3.10;;
20611;SDS011;10465;42.686;23.364;2023-03-01T06:52:43;3.30;;;2.65;;
20611;SDS011;10465;42.686;23.364;2023-03-01T06:55:10;3.33;;;2.72;;
20611;SDS011;10465;42.686;23.364;2023-03-01T06:57:36;4.82;;;3.20;;
20611;SDS011;10465;42.686;23.364;2023-03-01T07:00:04;5.63;;;3.33;;
20611;SDS011;10465;42.686;23.364;2023-03-01T07:02:30;3.97;;;2.97;;
20611;SDS011;10465;42.686;23.364;2023-03-01T07:04:56;6.03;;;3.20;;
20611;SDS011;10465;42.686;23.364;2023-03-01T07:07:21;5.18;;;3.22;;
20611;SDS011;10465;42.686;23.364;2023-03-01T07:09:48;6.75;;;3.45;;
20611;SDS011;10465;42.686;23.364;2023-03-01T07:12:13;4.43;;;3.45;;
20611;SDS011;10465;42.686;23.364;2023-03-01T07:14:39;4.85;;;2.90;;
20611;SDS011;10465;42.686;23.364;2023-03-01T07:17:05;4.43;;;3.17;;
20611;SDS011;10465;42.686;23.364;2023-03-01T07:19:30;4.18;;;3.20;;
20611;SDS011;10465;42.686;23.364;2023-03-01T07:21:56;6.18;;;2.53;;
20611;SDS011;10465;42.686;23.364;2023-03-01T07:24:21;4.13;;;2.72;;
20611;SDS011;10465;42.686;23.364;2023-03-01T07:26:51;3.65;;;2.60;;
20611;SDS011;10465;42.686;23.364;2023-03-01T07:29:17;4.70;;;3.08;;
20611;SDS011;10465;42.686;23.364;2023-03-01T07:31:43;3.13;;;2.55;;
20611;SDS011;10465;42.686;23.364;2023-03-01T07:34:08;5.43;;;3.15;;
20611;SDS011;10465;42.686;23.364;2023-03-01T07:36:35;6.03;;;3.50;;
20611;SDS011;10465;42.686;23.364;2023-03-01T07:39:01;3.67;;;2.58;;
20611;SDS011;10465;42.686;23.364;2023-03-01T07:41:28;4.85;;;3.22;;
20611;SDS011;10465;42.686;23.364;2023-03-01T07:43:53;4.60;;;2.30;;
20611;SDS011;10465;42.686;23.364;2023-03-01T07:46:19;2.67;;;1.83;;
20611;SDS011;10465;42.686;23.364;2023-03-01T07:48:45;3.20;;;2.28;;
20611;SDS011;10465;42.686;23.364;2023-03-01T07:51:11;2.72;;;2.20;;
20611;SDS011;10465;42.686;23.364;2023-03-01T07:53:36;3.58;;;2.35;;
20611;SDS011;10465;42.686;23.364;2023-03-01T07:56:03;2.70;;;1.80;;
20611;SDS011;10465;42.686;23.364;2023-03-01T07:58:36;3.03;;;2.05;;
20611;SDS011;10465;42.686;23.364;2023-03-01T08:01:04;3.38;;;2.00;;
20611;SDS011;10465;42.686;23.364;2023-03-01T08:03:31;3.78;;;2.13;;
20611;SDS011;10465;42.686;23.364;2023-03-01T08:05:59;3.40;;;2.08;;
20611;SDS011;10465;42.686;23.364;2023-03-01T08:08:25;3.67;;;2.30;;
20611;SDS011;10465;42.686;23.364;2023-03-01T08:10:51;3.20;;;2.30;;
20611;SDS011;10465;42.686;23.364;2023-03-01T08:13:16;2.58;;;2.03;;
20611;SDS011;10465;42.686;23.364;2023-03-01T08:15:47;3.67;;;1.98;;
20611;SDS011;10465;42.686;23.364;2023-03-01T08:18:13;4.82;;;1.92;;
20611;SDS011;10465;42.686;23.364;2023-03-01T08:20:39;2.83;;;1.80;;
20611;SDS011;10465;42.686;23.364;2023-03-01T08:23:05;2.28;;;1.98;;
20611;SDS011;10465;42.686;23.364;2023-03-01T08:25:30;4.43;;;2.00;;
20611;SDS011;10465;42.686;23.364;2023-03-01T08:27:55;2.60;;;2.05;;
20611;SDS011;10465;42.686;23.364;2023-03-01T08:30:21;3.70;;;2.10;;
20611;SDS011;10465;42.686;23.364;2023-03-01T08:32:48;3.95;;;2.25;;
20611;SDS011;10465;42.686;23.364;2023-03-01T08:35:15;4.35;;;1.92;;
20611;SDS011;10465;42.686;23.364;2023-03-01T08:37:41;3.22;;;2.15;;
20611;SDS011;10465;42.686;23.364;2023-03-01T08:40:06;2.72;;;2.33;;
20611;SDS011;10465;42.686;23.364;2023-03-01T08:42:34;4.22;;;2.33;;
20611;SDS011;10465;42.686;23.364;2023-03-01T08:45:00;4.25;;;2.45;;
20611;SDS011;10465;42.686;23.364;2023-03-01T08:47:26;3.38;;;1.90;;
20611;SDS011;10465;42.686;23.364;2023-03-01T08:49:51;2.75;;;2.10;;
20611;SDS011;10465;42.686;23.364;2023-03-01T08:52:17;3.95;;;2.40;;
20611;SDS011;10465;42.686;23.364;2023-03-01T08:54:44;3.95;;;3.08;;
20611;SDS011;10465;42.686;23.364;2023-03-01T08:57:09;4.07;;;3.38;;
20611;SDS011;10465;42.686;23.364;2023-03-01T08:59:35;5.72;;;2.90;;
20611;SDS011;10465;42.686;23.364;2023-03-01T09:02:02;3.17;;;2.63;;
20611;SDS011;10465;42.686;23.364;2023-03-01T09:04:29;3.47;;;2.67;;
20611;SDS011;10465;42.686;23.364;2023-03-01T09:06:54;3.22;;;2.90;;
20611;SDS011;10465;42.686;23.364;2023-03-01T09:09:20;3.72;;;2.63;;
20611;SDS011;10465;42.686;23.364;2023-03-01T09:11:45;3.03;;;2.00;;
20611;SDS011;10465;42.686;23.364;2023-03-01T09:14:12;1.60;;;1.50;;
20611;SDS011;10465;42.686;23.364;2023-03-01T09:16:38;4.50;;;2.10;;
20611;SDS011;10465;42.686;23.364;2023-03-01T09:19:04;2.85;;;1.85;;
20611;SDS011;10465;42.686;23.364;2023-03-01T09:21:30;3.00;;;1.92;;
20611;SDS011;10465;42.686;23.364;2023-03-01T09:23:56;3.53;;;1.75;;
20611;SDS011;10465;42.686;23.364;2023-03-01T09:26:23;2.67;;;1.88;;
20611;SDS011;10465;42.686;23.364;2023-03-01T09:28:49;2.65;;;1.90;;
20611;SDS011;10465;42.686;23.364;2023-03-01T09:31:17;2.50;;;1.83;;
20611;SDS011;10465;42.686;23.364;2023-03-01T09:33:48;2.95;;;1.77;;
20611;SDS011;10465;42.686;23.364;2023-03-01T09:36:16;2.65;;;1.60;;
20611;SDS011;10465;42.686;23.364;2023-03-01T09:38:44;2.13;;;1.48;;
20611;SDS011;10465;42.686;23.364;2023-03-01T09:41:11;4.53;;;2.22;;
20611;SDS011;10465;42.686;23.364;2023-03-01T09:44:15;1.92;;;1.58;;
20611;SDS011;10465;42.686;23.364;2023-03-01T09:46:45;1.95;;;1.48;;
20611;SDS011;10465;42.686;23.364;2023-03-01T09:49:15;2.05;;;1.48;;
20611;SDS011;10465;42.686;23.364;2023-03-01T09:52:10;1.63;;;1.27;;
20611;SDS011;10465;42.686;23.364;2023-03-01T09:54:44;1.88;;;1.20;;
20611;SDS011;10465;42.686;23.364;2023-03-01T09:57:20;2.83;;;1.45;;
20611;SDS011;10465;42.686;23.364;2023-03-01T10:02:40;1.70;;;1.33;;
20611;SDS011;10465;42.686;23.364;2023-03-01T10:10:36;4.47;;;1.60;;
20611;SDS011;10465;42.686;23.364;2023-03-01T10:13:09;1.73;;;1.27;;
20611;SDS011;10465;42.686;23.364;2023-03-01T10:15:43;2.50;;;1.60;;
20611;SDS011;10465;42.686;23.364;2023-03-01T10:18:14;1.50;;;1.20;;
20611;SDS011;10465;42.686;23.364;2023-03-01T10:23:23;3.42;;;1.70;;
20611;SDS011;10465;42.686;23.364;2023-03-01T10:25:56;2.60;;;1.80;;
20611;SDS011;10465;42.686;23.364;2023-03-01T10:31:13;3.80;;;1.67;;
20611;SDS011;10465;42.686;23.364;2023-03-01T10:33:43;3.85;;;2.10;;
20611;SDS011;10465;42.686;23.364;2023-03-01T10:36:08;2.70;;;1.98;;
20611;SDS011;10465;42.686;23.364;2023-03-01T10:38:47;4.47;;;1.70;;
20611;SDS011;10465;42.686;23.364;2023-03-01T10:41:23;2.65;;;1.90;;
20611;SDS011;10465;42.686;23.364;2023-03-01T10:46:31;2.58;;;0.90;;
20611;SDS011;10465;42.686;23.364;2023-03-01T10:51:40;1.10;;;0.80;;
20611;SDS011;10465;42.686;23.364;2023-03-01T10:54:17;1.08;;;0.60;;
20611;SDS011;10465;42.686;23.364;2023-03-01T10:56:55;1.75;;;1.20;;
20611;SDS011;10465;42.686;23.364;2023-03-01T10:59:25;1.00;;;0.80;;
20611;SDS011;10465;42.686;23.364;2023-03-01T11:04:55;3.25;;;1.30;;
20611;SDS011;10465;42.686;23.364;2023-03-01T11:07:47;5.55;;;1.50;;
20611;SDS011;10465;42.686;23.364;2023-03-01T11:10:26;1.08;;;0.90;;
20611;SDS011;10465;42.686;23.364;2023-03-01T11:13:06;2.40;;;1.35;;
20611;SDS011;10465;42.686;23.364;2023-03-01T11:15:34;1.50;;;1.20;;
20611;SDS011;10465;42.686;23.364;2023-03-01T11:18:00;1.35;;;0.95;;
20611;SDS011;10465;42.686;23.364;2023-03-01T11:22:55;2.22;;;1.52;;
20611;SDS011;10465;42.686;23.364;2023-03-01T11:25:35;1.98;;;0.98;;
20611;SDS011;10465;42.686;23.364;2023-03-01T11:28:05;1.73;;;0.93;;
20611;SDS011;10465;42.686;23.364;2023-03-01T11:30:38;1.10;;;1.00;;
20611;SDS011;10465;42.686;23.364;2023-03-01T11:33:16;1.92;;;1.35;;
20611;SDS011;10465;42.686;23.364;2023-03-01T11:35:53;0.90;;;0.70;;
20611;SDS011;10465;42.686;23.364;2023-03-01T11:38:25;1.00;;;0.90;;
20611;SDS011;10465;42.686;23.364;2023-03-01T11:44:08;2.47;;;1.00;;
20611;SDS011;10465;42.686;23.364;2023-03-01T11:56:46;5.00;;;1.85;;
20611;SDS011;10465;42.686;23.364;2023-03-01T11:59:26;2.30;;;1.95;;
20611;SDS011;10465;42.686;23.364;2023-03-01T12:07:42;4.00;;;2.10;;
20611;SDS011;10465;42.686;23.364;2023-03-01T12:10:35;3.53;;;2.67;;
20611;SDS011;10465;42.686;23.364;2023-03-01T12:13:18;2.63;;;2.08;;
20611;SDS011;10465;42.686;23.364;2023-03-01T12:31:57;4.18;;;2.60;;
20611;SDS011;10465;42.686;23.364;2023-03-01T12:34:39;5.65;;;2.40;;
20611;SDS011;10465;42.686;23.364;2023-03-01T12:40:16;3.88;;;2.40;;
20611;SDS011;10465;42.686;23.364;2023-03-01T12:45:48;3.72;;;2.60;;
20611;SDS011;10465;42.686;23.364;2023-03-01T12:51:07;3.55;;;2.60;;
20611;SDS011;10465;42.686;23.364;2023-03-01T12:53:39;3.83;;;2.45;;
20611;SDS011;10465;42.686;23.364;2023-03-01T12:56:26;4.30;;;2.78;;
20611;SDS011;10465;42.686;23.364;2023-03-01T13:10:12;3.83;;;2.55;;
20611;SDS011;10465;42.686;23.364;2023-03-01T13:12:52;3.13;;;2.17;;
20611;SDS011;10465;42.686;23.364;2023-03-01T13:17:56;2.58;;;1.75;;
20611;SDS011;10465;42.686;23.364;2023-03-01T13:20:29;2.55;;;2.03;;
20611;SDS011;10465;42.686;23.364;2023-03-01T13:23:02;3.25;;;2.20;;
20611;SDS011;10465;42.686;23.364;2023-03-01T13:25:30;2.25;;;1.90;;
20611;SDS011;10465;42.686;23.364;2023-03-01T13:30:59;3.38;;;2.63;;
20611;SDS011;10465;42.686;23.364;2023-03-01T13:35:51;4.38;;;2.67;;
20611;SDS011;10465;42.686;23.364;2023-03-01T13:41:03;3.85;;;2.25;;
20611;SDS011;10465;42.686;23.364;2023-03-01T13:43:33;3.47;;;2.33;;
20611;SDS011;10465;42.686;23.364;2023-03-01T13:46:02;4.57;;;2.30;;
20611;SDS011;10465;42.686;23.364;2023-03-01T13:48:35;3.63;;;1.90;;
20611;SDS011;10465;42.686;23.364;2023-03-01T13:51:08;3.58;;;2.55;;
20611;SDS011;10465;42.686;23.364;2023-03-01T13:53:39;4.25;;;2.10;;
20611;SDS011;10465;42.686;23.364;2023-03-01T13:56:19;4.30;;;2.33;;
20611;SDS011;10465;42.686;23.364;2023-03-01T13:58:50;3.97;;;2.67;;
20611;SDS011;10465;42.686;23.364;2023-03-01T14:03:48;3.78;;;2.03;;
20611;SDS011;10465;42.686;23.364;2023-03-01T14:06:18;3.58;;;2.50;;
20611;SDS011;10465;42.686;23.364;2023-03-01T14:08:46;3.90;;;2.60;;
20611;SDS011;10465;42.686;23.364;2023-03-01T14:14:09;2.90;;;2.20;;
20611;SDS011;10465;42.686;23.364;2023-03-01T14:19:38;3.97;;;2.55;;
20611;SDS011;10465;42.686;23.364;2023-03-01T14:22:29;4.93;;;2.70;;
20611;SDS011;10465;42.686;23.364;2023-03-01T14:25:01;6.03;;;2.60;;
20611;SDS011;10465;42.686;23.364;2023-03-01T14:27:37;3.53;;;2.25;;
20611;SDS011;10465;42.686;23.364;2023-03-01T14:30:14;4.70;;;2.30;;
20611;SDS011;10465;42.686;23.364;2023-03-01T14:33:02;3.75;;;2.03;;
20611;SDS011;10465;42.686;23.364;2023-03-01T14:35:30;3.58;;;2.05;;
20611;SDS011;10465;42.686;23.364;2023-03-01T14:37:57;4.18;;;2.50;;
20611;SDS011;10465;42.686;23.364;2023-03-01T14:40:33;5.57;;;3.67;;
20611;SDS011;10465;42.686;23.364;2023-03-01T14:43:00;3.20;;;2.35;;
20611;SDS011;10465;42.686;23.364;2023-03-01T14:45:33;5.70;;;2.58;;
20611;SDS011;10465;42.686;23.364;2023-03-01T14:47:59;4.70;;;2.30;;
20611;SDS011;10465;42.686;23.364;2023-03-01T14:50:28;3.95;;;2.38;;
20611;SDS011;10465;42.686;23.364;2023-03-01T14:53:03;6.03;;;2.53;;
20611;SDS011;10465;42.686;23.364;2023-03-01T14:55:42;5.35;;;3.95;;
20611;SDS011;10465;42.686;23.364;2023-03-01T14:58:14;2.92;;;2.15;;
20611;SDS011;10465;42.686;23.364;2023-03-01T15:01:05;5.75;;;2.58;;
20611;SDS011;10465;42.686;23.364;2023-03-01T15:06:03;3.92;;;2.63;;
20611;SDS011;10465;42.686;23.364;2023-03-01T15:08:30;5.30;;;3.05;;
20611;SDS011;10465;42.686;23.364;2023-03-01T15:13:49;5.78;;;2.30;;
20611;SDS011;10465;42.686;23.364;2023-03-01T15:16:19;6.32;;;3.83;;
20611;SDS011;10465;42.686;23.364;2023-03-01T15:18:58;4.78;;;3.15;;
20611;SDS011;10465;42.686;23.364;2023-03-01T15:21:27;4.70;;;2.92;;
20611;SDS011;10465;42.686;23.364;2023-03-01T15:24:05;5.10;;;2.88;;
20611;SDS011;10465;42.686;23.364;2023-03-01T15:29:27;5.38;;;2.45;;
20611;SDS011;10465;42.686;23.364;2023-03-01T15:34:29;5.47;;;2.80;;
20611;SDS011;10465;42.686;23.364;2023-03-01T15:36:57;6.30;;;2.50;;
20611;SDS011;10465;42.686;23.364;2023-03-01T15:41:50;4.30;;;2.55;;
20611;SDS011;10465;42.686;23.364;2023-03-01T15:44:29;7.88;;;2.78;;
20611;SDS011;10465;42.686;23.364;2023-03-01T15:46:57;7.93;;;3.90;;
20611;SDS011;10465;42.686;23.364;2023-03-01T15:51:49;4.80;;;3.15;;
20611;SDS011;10465;42.686;23.364;2023-03-01T15:54:19;5.60;;;3.53;;
20611;SDS011;10465;42.686;23.364;2023-03-01T15:56:47;4.65;;;2.25;;
20611;SDS011;10465;42.686;23.364;2023-03-01T15:59:13;7.97;;;3.15;;
20611;SDS011;10465;42.686;23.364;2023-03-01T16:01:39;8.25;;;3.00;;
20611;SDS011;10465;42.686;23.364;2023-03-01T16:04:05;4.60;;;3.08;;
20611;SDS011;10465;42.686;23.364;2023-03-01T16:06:30;5.35;;;2.75;;
20611;SDS011;10465;42.686;23.364;2023-03-01T16:08:56;5.35;;;2.80;;
20611;SDS011;10465;42.686;23.364;2023-03-01T16:11:22;8.10;;;2.75;;
20611;SDS011;10465;42.686;23.364;2023-03-01T16:13:47;5.72;;;3.15;;
20611;SDS011;10465;42.686;23.364;2023-03-01T16:16:13;4.43;;;2.28;;
20611;SDS011;10465;42.686;23.364;2023-03-01T16:18:50;8.45;;;3.30;;
20611;SDS011;10465;42.686;23.364;2023-03-01T16:21:20;6.53;;;2.95;;
20611;SDS011;10465;42.686;23.364;2023-03-01T16:23:49;7.72;;;3.00;;
20611;SDS011;10465;42.686;23.364;2023-03-01T16:26:15;4.88;;;2.70;;
20611;SDS011;10465;42.686;23.364;2023-03-01T16:28:41;6.03;;;3.15;;
20611;SDS011;10465;42.686;23.364;2023-03-01T16:31:07;6.47;;;3.65;;
20611;SDS011;10465;42.686;23.364;2023-03-01T16:33:33;11.93;;;4.13;;
20611;SDS011;10465;42.686;23.364;2023-03-01T16:35:59;11.32;;;5.70;;
20611;SDS011;10465;42.686;23.364;2023-03-01T16:38:27;9.10;;;4.18;;
20611;SDS011;10465;42.686;23.364;2023-03-01T16:40:53;10.45;;;3.95;;
20611;SDS011;10465;42.686;23.364;2023-03-01T16:43:18;6.03;;;3.33;;
20611;SDS011;10465;42.686;23.364;2023-03-01T16:45:44;5.38;;;2.95;;
20611;SDS011;10465;42.686;23.364;2023-03-01T16:48:10;10.55;;;5.28;;
20611;SDS011;10465;42.686;23.364;2023-03-01T16:50:36;5.75;;;3.22;;
20611;SDS011;10465;42.686;23.364;2023-03-01T16:53:01;5.90;;;3.53;;
20611;SDS011;10465;42.686;23.364;2023-03-01T16:55:27;7.75;;;4.38;;
20611;SDS011;10465;42.686;23.364;2023-03-01T16:57:53;4.80;;;3.60;;
20611;SDS011;10465;42.686;23.364;2023-03-01T17:00:18;9.05;;;4.57;;
20611;SDS011;10465;42.686;23.364;2023-03-01T17:02:45;9.20;;;5.18;;
20611;SDS011;10465;42.686;23.364;2023-03-01T17:05:11;8.95;;;4.70;;
20611;SDS011;10465;42.686;23.364;2023-03-01T17:07:37;7.15;;;4.57;;